This is the latest recevied weather packets stored in our database for station/object EFTP. If no packets are shown the sender has not sent any weather packets the latest 10 day(s).
| Time | Temp. | Humidity | Pressure | Rain* | Wind** | Luminosity | Snow |
|---|---|---|---|---|---|---|---|
| 1777444009 | 3.33° C | 46% | 1026.4 hPa | - | - | - | - |
| 1777442808 | 2.78° C | 48% | 1026.4 hPa | - | - | - | - |
| 1777441608 | 2.22° C | 53% | 1026.5 hPa | - | - | - | - |
| 1777440408 | 1.67° C | 56% | 1026.6 hPa | - | - | - | - |
| 1777439208 | 0.56° C | 60% | 1026.6 hPa | - | - | - | - |
| 1777438008 | 0° C | 64% | 1026.7 hPa | - | - | - | - |
| 1777436808 | -0.56° C | 66% | 1026.5 hPa | - | - | - | - |
| 1777435608 | -1.11° C | 68% | 1026.5 hPa | - | - | - | - |
| 1777434408 | -1.67° C | 68% | 1026.5 hPa | - | - | - | - |
| 1777433208 | -1.67° C | 69% | 1026.4 hPa | - | - | - | - |
| 1777432009 | -1.67° C | 68% | 1026.2 hPa | - | - | - | - |
| 1777430808 | -1.67° C | 68% | 1026.1 hPa | - | - | - | - |
| 1777429609 | -1.67° C | 66% | 1026 hPa | - | - | - | - |
| 1777428409 | -1.67° C | 64% | 1025.8 hPa | - | - | - | - |
| 1777427208 | -1.67° C | 64% | 1025.7 hPa | - | - | - | - |
| 1777426008 | -1.11° C | 62% | 1025.6 hPa | - | - | - | - |
| 1777424808 | -0.56° C | 60% | 1025.5 hPa | - | - | - | - |
| 1777423608 | -0.56° C | 59% | 1025.4 hPa | - | - | - | - |
| 1777422408 | -0.56° C | 57% | 1025.2 hPa | - | - | - | - |
| 1777421207 | 0° C | 55% | 1025.1 hPa | - | - | - | - |
| 1777420008 | 0° C | 54% | 1025.1 hPa | - | - | - | - |
| 1777418807 | 0.56° C | 53% | 1025 hPa | - | - | - | - |
| 1777417607 | 0.56° C | 53% | 1024.9 hPa | - | - | - | - |
| 1777416407 | 1.11° C | 51% | 1024.8 hPa | - | - | - | - |
| 1777415209 | 1.11° C | 51% | 1024.7 hPa | - | - | - | - |
* Rain since midnight (hover to see other rain measurements)
** Current wind speed in m/s (hover to see current wind gust speed)